createdAt,value
2022-09-07T00:02:20.728Z,1.80
2022-09-07T00:04:47.364Z,1.83
2022-09-07T00:07:13.928Z,1.33
2022-09-07T00:09:40.594Z,1.63
2022-09-07T00:12:07.176Z,1.33
2022-09-07T00:14:34.469Z,1.38
2022-09-07T00:17:01.226Z,1.52
2022-09-07T00:19:27.801Z,1.38
2022-09-07T00:21:55.580Z,1.45
2022-09-07T00:24:22.144Z,1.40
2022-09-07T00:26:48.669Z,1.35
2022-09-07T00:29:15.236Z,1.40
2022-09-07T00:31:42.106Z,1.60
2022-09-07T00:34:08.714Z,1.30
2022-09-07T00:36:35.260Z,1.38
2022-09-07T00:39:02.765Z,1.50
2022-09-07T00:41:29.403Z,1.27
2022-09-07T00:43:58.397Z,1.38
2022-09-07T00:46:30.322Z,1.60
2022-09-07T00:49:01.171Z,1.30
2022-09-07T00:51:33.946Z,1.27
2022-09-07T00:54:04.104Z,1.30
2022-09-07T00:56:33.595Z,1.38
2022-09-07T00:59:00.543Z,1.52
2022-09-07T01:01:27.590Z,1.33
2022-09-07T01:03:55.643Z,1.33
2022-09-07T01:06:29.214Z,1.30
2022-09-07T01:08:57.065Z,1.65
2022-09-07T01:11:23.741Z,1.45
2022-09-07T01:13:51.035Z,1.35
2022-09-07T01:16:45.616Z,1.30
2022-09-07T01:19:38.056Z,1.90
2022-09-07T01:22:22.829Z,1.67
2022-09-07T01:25:03.047Z,1.10
2022-09-07T01:27:46.624Z,1.70
2022-09-07T01:30:15.157Z,1.50
2022-09-07T01:33:14.282Z,1.25
2022-09-07T01:35:59.456Z,1.30
2022-09-07T01:38:53.226Z,1.30
2022-09-07T01:41:43.817Z,1.50
2022-09-07T01:44:31.056Z,1.27
2022-09-07T01:47:01.372Z,1.33
2022-09-07T01:49:37.827Z,1.52
2022-09-07T01:52:14.566Z,1.55
2022-09-07T01:54:52.193Z,1.40
2022-09-07T01:57:26.918Z,1.15
2022-09-07T01:59:59.078Z,1.25
2022-09-07T02:02:30.399Z,1.10
2022-09-07T02:05:09.328Z,1.10
2022-09-07T02:07:42.476Z,1.30
2022-09-07T02:10:25.714Z,1.33
2022-09-07T02:12:59.197Z,1.30
2022-09-07T02:15:42.355Z,1.48
2022-09-07T02:18:10.427Z,2.03
2022-09-07T02:20:38.724Z,1.70
2022-09-07T02:23:09.832Z,1.48
2022-09-07T02:25:40.873Z,1.33
2022-09-07T02:28:13.490Z,1.73
2022-09-07T02:30:40.248Z,1.48
2022-09-07T02:33:07.012Z,1.30
2022-09-07T02:35:34.065Z,1.30
2022-09-07T02:38:05.937Z,1.55
2022-09-07T02:40:32.649Z,1.13
2022-09-07T02:43:01.969Z,1.63
2022-09-07T02:45:36.255Z,1.25
2022-09-07T02:48:14.952Z,1.35
2022-09-07T02:50:56.682Z,1.38
2022-09-07T02:53:45.374Z,1.50
2022-09-07T02:56:34.713Z,1.65
2022-09-07T02:59:41.282Z,1.30
2022-09-07T03:02:22.821Z,1.00
2022-09-07T03:05:13.085Z,1.15
2022-09-07T03:07:45.245Z,1.88
2022-09-07T03:10:14.770Z,1.65
2022-09-07T03:12:44.984Z,1.25
2022-09-07T03:15:15.287Z,1.70
2022-09-07T03:17:42.410Z,1.35
2022-09-07T03:20:09.578Z,1.27
2022-09-07T03:22:36.138Z,1.67
2022-09-07T03:25:04.423Z,1.75
2022-09-07T03:27:32.155Z,1.65
2022-09-07T03:29:59.520Z,1.45
2022-09-07T03:32:31.572Z,1.45
2022-09-07T03:34:58.650Z,1.40
2022-09-07T03:37:25.298Z,1.70
2022-09-07T03:39:52.495Z,1.60
2022-09-07T03:42:19.353Z,2.15
2022-09-07T03:44:46.034Z,1.52
2022-09-07T03:47:12.755Z,1.63
2022-09-07T03:49:39.477Z,1.70
2022-09-07T03:52:06.120Z,1.50
2022-09-07T03:54:34.913Z,1.60
2022-09-07T03:57:03.551Z,1.88
2022-09-07T03:59:30.054Z,1.98
2022-09-07T04:01:56.656Z,1.70
2022-09-07T04:04:23.316Z,1.60
2022-09-07T04:06:50.963Z,2.22
2022-09-07T04:09:17.656Z,1.73
2022-09-07T04:11:44.271Z,1.67
2022-09-07T04:14:11.494Z,1.90
2022-09-07T04:16:38.549Z,1.88
2022-09-07T04:19:05.376Z,1.60
2022-09-07T04:21:33.337Z,2.30
2022-09-07T04:24:00.196Z,1.55
2022-09-07T04:26:31.910Z,1.75
2022-09-07T04:28:59.736Z,2.00
2022-09-07T04:31:26.432Z,1.83
2022-09-07T04:33:53.430Z,2.45
2022-09-07T04:36:20.573Z,1.52
2022-09-07T04:38:47.575Z,2.17
2022-09-07T04:41:16.649Z,1.63
2022-09-07T04:43:43.645Z,1.80
2022-09-07T04:46:24.670Z,2.13
2022-09-07T04:48:53.499Z,1.75
2022-09-07T04:51:21.269Z,1.70
2022-09-07T04:53:49.833Z,2.10
2022-09-07T04:56:17.253Z,2.03
2022-09-07T04:58:44.447Z,2.30
2022-09-07T05:01:14.626Z,1.67
2022-09-07T05:03:42.327Z,2.00
2022-09-07T05:06:09.644Z,2.10
2022-09-07T05:08:41.774Z,2.22
2022-09-07T05:11:09.517Z,2.38
2022-09-07T05:13:36.387Z,2.05
2022-09-07T05:16:20.069Z,2.17
2022-09-07T05:18:54.577Z,1.83
2022-09-07T05:21:24.229Z,2.47
2022-09-07T05:23:52.388Z,1.90
2022-09-07T05:26:20.500Z,2.20
2022-09-07T05:28:47.214Z,2.00
2022-09-07T05:31:19.893Z,1.88
2022-09-07T05:36:35.718Z,2.17
2022-09-07T05:39:02.334Z,1.88
2022-09-07T05:41:29.116Z,2.50
2022-09-07T05:46:42.643Z,2.03
2022-09-07T05:49:09.327Z,2.25
2022-09-07T05:51:37.308Z,2.30
2022-09-07T05:54:04.326Z,2.20
2022-09-07T05:56:34.353Z,2.95
2022-09-07T05:59:00.843Z,3.75
2022-09-07T06:01:27.566Z,2.08
2022-09-07T06:03:54.167Z,2.42
2022-09-07T06:06:20.840Z,2.72
2022-09-07T06:08:49.370Z,2.83
2022-09-07T06:11:18.720Z,2.20
2022-09-07T06:13:45.526Z,2.38
2022-09-07T06:16:13.435Z,1.95
2022-09-07T06:18:42.647Z,2.42
2022-09-07T06:21:17.969Z,2.97
2022-09-07T06:23:45.751Z,3.00
2022-09-07T06:26:13.090Z,3.63
2022-09-07T06:28:42.297Z,3.13
2022-09-07T06:31:11.553Z,2.88
2022-09-07T06:33:39.231Z,3.10
2022-09-07T06:36:07.941Z,2.88
2022-09-07T06:38:37.646Z,2.88
2022-09-07T06:44:01.007Z,2.42
2022-09-07T06:49:14.212Z,2.42
2022-09-07T06:51:40.783Z,2.40
2022-09-07T06:56:54.029Z,3.00
2022-09-07T06:59:20.560Z,2.75
2022-09-07T07:01:47.172Z,2.35
2022-09-07T07:04:14.170Z,2.33
2022-09-07T07:06:40.729Z,3.03
2022-09-07T07:09:08.751Z,2.80
2022-09-07T07:11:37.238Z,2.53
2022-09-07T07:14:03.876Z,2.70
2022-09-07T07:16:30.575Z,3.35
2022-09-07T07:18:57.457Z,3.53
2022-09-07T07:21:24.079Z,4.20
2022-09-07T07:23:52.211Z,3.35
2022-09-07T07:26:21.098Z,3.05
2022-09-07T07:31:26.412Z,3.65
2022-09-07T07:33:53.527Z,2.55
2022-09-07T07:36:24.845Z,2.80
2022-09-07T07:39:01.442Z,3.38
2022-09-07T07:44:20.842Z,2.92
2022-09-07T07:46:51.363Z,3.13
2022-09-07T07:49:18.205Z,3.97
2022-09-07T07:54:34.178Z,2.83
2022-09-07T07:57:00.720Z,3.70
2022-09-07T07:59:27.167Z,2.92
2022-09-07T08:01:53.847Z,3.10
2022-09-07T08:04:20.536Z,3.45
2022-09-07T08:06:46.980Z,3.78
2022-09-07T08:09:13.433Z,2.75
2022-09-07T08:11:40.649Z,3.03
2022-09-07T08:14:08.684Z,3.20
2022-09-07T08:16:36.389Z,3.50
2022-09-07T08:19:05.761Z,3.17
2022-09-07T08:21:32.215Z,3.55
2022-09-07T08:24:00.207Z,3.63
2022-09-07T08:26:27.647Z,3.83
2022-09-07T08:28:54.084Z,3.58
2022-09-07T08:31:20.641Z,4.18
2022-09-07T08:33:47.256Z,3.53
2022-09-07T08:36:15.757Z,3.60
2022-09-07T08:38:42.689Z,4.22
2022-09-07T08:41:34.373Z,3.92
2022-09-07T08:44:03.938Z,3.53
2022-09-07T08:46:57.039Z,4.28
2022-09-07T08:49:37.447Z,3.50
2022-09-07T08:52:10.038Z,3.47
2022-09-07T08:54:36.949Z,4.20
2022-09-07T09:00:07.119Z,3.40
2022-09-07T09:02:42.546Z,3.50
2022-09-07T09:05:28.601Z,4.28
2022-09-07T09:08:31.119Z,3.33
2022-09-07T09:11:05.966Z,3.50
2022-09-07T09:13:52.303Z,3.85
2022-09-07T09:16:21.865Z,3.92
2022-09-07T09:19:12.239Z,3.88
2022-09-07T09:21:40.573Z,3.95
2022-09-07T09:24:15.410Z,4.22
2022-09-07T09:26:44.971Z,4.15
2022-09-07T09:29:20.183Z,4.70
2022-09-07T09:31:46.724Z,4.35
2022-09-07T09:34:15.743Z,4.10
2022-09-07T09:36:53.900Z,3.92
2022-09-07T09:39:27.541Z,4.15
2022-09-07T09:41:56.846Z,4.05
2022-09-07T09:44:23.520Z,4.20
2022-09-07T09:49:40.748Z,4.68
2022-09-07T09:52:41.791Z,4.50
2022-09-07T09:55:33.091Z,3.60
2022-09-07T10:01:24.874Z,4.50
2022-09-07T10:06:39.375Z,3.88
2022-09-07T10:09:08.761Z,4.55
2022-09-07T10:14:42.113Z,4.70
2022-09-07T10:17:30.265Z,4.63
2022-09-07T10:20:02.137Z,4.28
2022-09-07T10:22:37.215Z,4.60
2022-09-07T10:25:06.247Z,4.60
2022-09-07T10:27:36.447Z,4.88
2022-09-07T10:30:11.087Z,4.82
2022-09-07T10:32:46.764Z,4.38
2022-09-07T10:35:29.296Z,4.85
2022-09-07T10:38:00.651Z,5.40
2022-09-07T10:40:32.074Z,5.35
2022-09-07T10:43:26.550Z,4.88
2022-09-07T10:45:59.128Z,4.95
2022-09-07T10:48:37.862Z,4.75
2022-09-07T10:51:13.941Z,4.40
2022-09-07T10:57:01.221Z,4.85
2022-09-07T11:05:40.110Z,4.82
2022-09-07T11:14:22.107Z,5.07
2022-09-07T11:16:55.885Z,4.78
2022-09-07T11:19:39.471Z,4.68
2022-09-07T11:22:30.020Z,4.65
2022-09-07T11:25:35.859Z,4.60
2022-09-07T11:28:09.790Z,4.90
2022-09-07T11:30:48.252Z,5.35
2022-09-07T11:33:27.312Z,5.18
2022-09-07T11:35:59.756Z,4.40
2022-09-07T11:38:33.379Z,5.18
2022-09-07T11:41:29.147Z,4.93
2022-09-07T11:44:02.195Z,4.45
2022-09-07T11:46:54.324Z,4.93
2022-09-07T11:49:23.438Z,5.50
2022-09-07T11:51:54.142Z,5.07
2022-09-07T11:54:20.670Z,5.03
2022-09-07T11:56:52.351Z,5.35
2022-09-07T11:59:34.854Z,4.65
2022-09-07T12:02:32.238Z,5.13
2022-09-07T12:05:16.230Z,5.32
2022-09-07T12:07:51.296Z,5.15
2022-09-07T12:10:33.192Z,5.65
2022-09-07T12:13:24.428Z,4.95
2022-09-07T12:16:12.268Z,5.25
2022-09-07T12:19:00.425Z,4.85
2022-09-07T12:21:35.122Z,5.15
2022-09-07T12:24:01.678Z,4.78
2022-09-07T12:26:34.255Z,5.15
2022-09-07T12:29:00.795Z,5.10
2022-09-07T12:32:52.697Z,5.28
2022-09-07T12:34:53.248Z,5.20
2022-09-07T12:37:35.916Z,5.13
2022-09-07T12:40:40.024Z,5.28
2022-09-07T12:43:12.352Z,6.05
2022-09-07T12:45:38.753Z,5.35
2022-09-07T12:48:17.215Z,5.15
2022-09-07T12:50:53.463Z,5.50
2022-09-07T12:53:31.811Z,4.97
2022-09-07T12:56:17.340Z,4.70
2022-09-07T12:58:51.914Z,5.63
2022-09-07T13:01:27.366Z,4.97
2022-09-07T13:04:03.498Z,5.70
2022-09-07T13:07:03.913Z,5.40
2022-09-07T13:09:33.882Z,5.25
2022-09-07T13:12:04.838Z,5.75
2022-09-07T13:14:34.479Z,5.05
2022-09-07T13:17:33.010Z,4.75
2022-09-07T13:19:59.540Z,5.85
2022-09-07T13:22:29.034Z,5.78
2022-09-07T13:24:59.581Z,5.05
2022-09-07T13:27:43.500Z,5.65
2022-09-07T13:30:16.517Z,5.32
2022-09-07T13:35:32.058Z,6.05
2022-09-07T13:38:00.794Z,4.60
2022-09-07T13:40:29.888Z,4.97
2022-09-07T13:42:57.164Z,5.45
2022-09-07T13:46:06.658Z,5.50
2022-09-07T13:48:36.803Z,5.28
2022-09-07T13:51:08.088Z,6.97
2022-09-07T13:53:39.367Z,5.45
2022-09-07T13:56:14.470Z,5.07
2022-09-07T13:58:42.639Z,6.82
2022-09-07T14:01:12.190Z,5.60
2022-09-07T14:03:56.386Z,5.85
2022-09-07T14:06:22.888Z,5.90
2022-09-07T14:08:56.314Z,5.72
2022-09-07T14:11:39.563Z,5.35
2022-09-07T14:14:27.403Z,5.22
2022-09-07T14:17:05.610Z,5.43
2022-09-07T14:19:42.766Z,5.68
2022-09-07T14:22:35.721Z,5.70
2022-09-07T14:25:05.157Z,5.38
2022-09-07T14:27:38.701Z,5.85
2022-09-07T14:30:15.122Z,6.05
2022-09-07T14:32:41.900Z,4.97
2022-09-07T14:35:13.591Z,5.07
2022-09-07T14:37:40.430Z,5.95
2022-09-07T14:40:22.787Z,5.65
2022-09-07T14:42:50.607Z,5.55
2022-09-07T14:45:19.930Z,5.00
2022-09-07T14:47:47.484Z,6.00
2022-09-07T14:50:24.550Z,4.65
2022-09-07T14:55:42.124Z,5.22
2022-09-07T14:58:09.454Z,5.88
2022-09-07T15:00:36.189Z,5.72
2022-09-07T15:03:24.208Z,5.60
2022-09-07T15:05:50.813Z,4.70
2022-09-07T15:08:36.328Z,5.32
2022-09-07T15:11:38.454Z,4.97
2022-09-07T15:14:08.072Z,5.28
2022-09-07T15:16:37.676Z,4.93
2022-09-07T15:19:32.074Z,5.43
2022-09-07T15:22:00.862Z,4.75
2022-09-07T15:24:27.316Z,4.47
2022-09-07T15:27:09.276Z,5.15
2022-09-07T15:29:35.758Z,5.35
2022-09-07T15:32:04.768Z,4.72
2022-09-07T15:34:32.587Z,5.50
2022-09-07T15:37:01.037Z,4.20
2022-09-07T15:39:30.222Z,5.32
2022-09-07T15:41:57.665Z,4.88
2022-09-07T15:44:26.305Z,4.55
2022-09-07T15:49:47.417Z,5.70
2022-09-07T15:52:16.137Z,4.95
2022-09-07T15:54:43.470Z,6.07
2022-09-07T15:59:56.942Z,5.47
2022-09-07T16:05:10.533Z,4.63
2022-09-07T16:10:24.477Z,4.78
2022-09-07T16:15:45.663Z,4.57
2022-09-07T16:18:17.245Z,4.97
2022-09-07T16:20:44.835Z,4.80
2022-09-07T16:23:14.679Z,5.05
2022-09-07T16:25:43.383Z,5.10
2022-09-07T16:28:10.644Z,4.65
2022-09-07T16:30:40.876Z,5.22
2022-09-07T16:33:08.066Z,5.18
2022-09-07T16:35:34.842Z,4.57
2022-09-07T16:40:50.077Z,4.72
2022-09-07T16:43:19.870Z,5.18
2022-09-07T16:48:34.933Z,5.03
2022-09-07T16:51:03.000Z,5.07
2022-09-07T16:53:31.898Z,4.55
2022-09-07T16:56:16.945Z,4.68
2022-09-07T16:58:49.146Z,4.82
2022-09-07T17:01:19.172Z,5.85
2022-09-07T17:03:46.305Z,4.95
2022-09-07T17:06:14.330Z,5.03
2022-09-07T17:08:41.884Z,4.90
2022-09-07T17:11:11.097Z,5.07
2022-09-07T17:13:38.893Z,5.38
2022-09-07T17:16:10.669Z,5.45
2022-09-07T17:21:24.648Z,5.28
2022-09-07T17:23:55.632Z,5.40
2022-09-07T17:26:26.242Z,5.50
2022-09-07T17:28:55.059Z,5.38
2022-09-07T17:34:11.761Z,5.97
2022-09-07T17:36:38.237Z,5.53
2022-09-07T17:39:20.349Z,5.45
2022-09-07T17:41:48.446Z,4.97
2022-09-07T17:44:15.204Z,4.97
2022-09-07T17:46:41.717Z,4.32
2022-09-07T17:49:10.435Z,3.78
2022-09-07T17:51:37.137Z,4.63
2022-09-07T17:54:13.236Z,4.05
2022-09-07T17:56:41.298Z,3.92
2022-09-07T18:01:55.362Z,2.90
2022-09-07T18:04:22.861Z,2.63
2022-09-07T18:06:49.561Z,2.78
2022-09-07T18:09:16.212Z,2.17
2022-09-07T18:11:45.914Z,2.75
2022-09-07T18:14:14.534Z,3.00
2022-09-07T18:16:41.493Z,2.97
2022-09-07T18:19:08.734Z,2.63
2022-09-07T18:21:36.633Z,3.08
2022-09-07T18:24:16.991Z,2.80
2022-09-07T18:26:44.754Z,3.17
2022-09-07T18:29:28.231Z,2.65
2022-09-07T18:31:57.109Z,2.97
2022-09-07T18:34:24.075Z,3.08
2022-09-07T18:36:50.797Z,2.90
2022-09-07T18:39:17.507Z,3.42
2022-09-07T18:41:44.126Z,3.63
2022-09-07T18:46:57.155Z,3.10
2022-09-07T18:49:24.972Z,3.63
2022-09-07T18:54:38.547Z,3.38
2022-09-07T18:57:06.748Z,4.55
2022-09-07T18:59:33.407Z,4.35
2022-09-07T19:02:03.868Z,4.50
2022-09-07T19:07:20.441Z,4.75
2022-09-07T19:09:48.227Z,4.20
2022-09-07T19:12:15.135Z,4.40
2022-09-07T19:14:42.422Z,4.35
2022-09-07T19:17:11.002Z,4.63
2022-09-07T19:19:38.770Z,4.82
2022-09-07T19:22:06.123Z,4.20
2022-09-07T19:24:33.491Z,4.45
2022-09-07T19:27:00.898Z,5.32
2022-09-07T19:29:28.084Z,5.13
2022-09-07T19:32:11.947Z,5.47
2022-09-07T19:34:43.423Z,4.57
2022-09-07T19:37:11.753Z,5.60
2022-09-07T19:39:38.465Z,5.43
2022-09-07T19:42:05.950Z,5.40
2022-09-07T19:44:32.889Z,5.55
2022-09-07T19:47:00.526Z,5.15
2022-09-07T19:49:27.934Z,5.78
2022-09-07T19:51:54.472Z,4.93
2022-09-07T19:54:20.975Z,5.00
2022-09-07T19:56:47.472Z,4.65
2022-09-07T19:59:14.511Z,5.22
2022-09-07T20:01:46.087Z,4.65
2022-09-07T20:04:19.590Z,5.63
2022-09-07T20:06:49.802Z,4.75
2022-09-07T20:09:18.079Z,4.68
2022-09-07T20:11:46.731Z,5.00
2022-09-07T20:14:16.798Z,5.07
2022-09-07T20:16:43.510Z,5.18
2022-09-07T20:19:12.302Z,5.53
2022-09-07T20:21:38.737Z,5.10
2022-09-07T20:24:05.832Z,5.75
2022-09-07T20:26:32.811Z,4.45
2022-09-07T20:29:23.439Z,4.70
2022-09-07T20:31:47.105Z,5.40
2022-09-07T20:34:13.816Z,4.93
2022-09-07T20:36:40.521Z,4.80
2022-09-07T20:39:07.320Z,4.57
2022-09-07T20:41:34.356Z,5.00
2022-09-07T20:44:03.468Z,4.90
2022-09-07T20:46:30.604Z,5.28
2022-09-07T20:48:57.188Z,4.65
2022-09-07T20:51:23.689Z,5.15
2022-09-07T20:53:50.886Z,4.53
2022-09-07T20:56:20.024Z,4.30
2022-09-07T20:58:47.739Z,4.63
2022-09-07T21:01:16.306Z,4.70
2022-09-07T21:03:49.184Z,4.45
2022-09-07T21:06:16.823Z,4.70
2022-09-07T21:08:44.188Z,4.40
2022-09-07T21:11:18.513Z,4.25
2022-09-07T21:13:46.220Z,4.32
2022-09-07T21:16:14.878Z,4.45
2022-09-07T21:18:42.098Z,4.88
2022-09-07T21:21:24.179Z,4.28
2022-09-07T21:23:59.542Z,4.50
2022-09-07T21:26:28.009Z,3.85
2022-09-07T21:29:05.274Z,4.05
2022-09-07T21:31:34.032Z,4.22
2022-09-07T21:34:02.033Z,3.80
2022-09-07T21:36:29.614Z,4.40
2022-09-07T21:38:56.742Z,3.92
2022-09-07T21:41:24.332Z,3.53
2022-09-07T21:43:57.963Z,4.03
2022-09-07T21:46:25.319Z,3.10
2022-09-07T21:48:51.936Z,3.70
2022-09-07T21:51:18.683Z,3.67
2022-09-07T21:53:45.171Z,3.60
2022-09-07T21:56:13.900Z,3.83
2022-09-07T21:58:40.491Z,3.78
2022-09-07T22:01:12.707Z,3.17
2022-09-07T22:03:40.449Z,4.30
2022-09-07T22:06:08.022Z,3.53
2022-09-07T22:08:35.861Z,3.60
2022-09-07T22:11:07.140Z,3.25
2022-09-07T22:13:34.166Z,3.45
2022-09-07T22:16:00.995Z,3.80
2022-09-07T22:18:30.415Z,3.10
2022-09-07T22:21:08.097Z,3.63
2022-09-07T22:23:37.259Z,3.55
2022-09-07T22:26:04.367Z,4.10
2022-09-07T22:28:31.694Z,3.78
2022-09-07T22:31:18.825Z,3.10
2022-09-07T22:33:46.918Z,3.03
2022-09-07T22:36:16.018Z,3.33
2022-09-07T22:38:43.869Z,3.20
2022-09-07T22:41:21.530Z,3.10
2022-09-07T22:43:50.820Z,3.72
2022-09-07T22:46:19.371Z,3.70
2022-09-07T22:48:45.908Z,3.38
2022-09-07T22:51:12.734Z,3.60
2022-09-07T22:53:41.089Z,3.28
2022-09-07T22:56:16.218Z,3.42
2022-09-07T22:58:46.950Z,3.63
2022-09-07T23:01:13.622Z,3.40
2022-09-07T23:03:40.325Z,3.22
2022-09-07T23:06:06.876Z,3.47
2022-09-07T23:08:33.335Z,3.03
2022-09-07T23:11:05.323Z,3.20
2022-09-07T23:13:33.125Z,3.05
2022-09-07T23:16:06.338Z,2.95
2022-09-07T23:18:34.121Z,2.85
2022-09-07T23:21:01.221Z,3.28
2022-09-07T23:23:28.452Z,2.70
2022-09-07T23:25:55.186Z,3.45
2022-09-07T23:28:21.631Z,3.30
2022-09-07T23:30:48.845Z,2.72
2022-09-07T23:33:15.848Z,3.70
2022-09-07T23:35:42.896Z,2.80
2022-09-07T23:38:09.431Z,3.70
2022-09-07T23:40:35.868Z,3.58
2022-09-07T23:43:02.559Z,3.78
2022-09-07T23:45:29.266Z,3.72
2022-09-07T23:47:55.696Z,3.10
2022-09-07T23:50:22.230Z,2.72
2022-09-07T23:52:48.703Z,3.15
2022-09-07T23:55:15.106Z,3.25
2022-09-07T23:57:41.517Z,3.47
